createdAt,value
2022-12-24T00:01:20.571Z,9.45
2022-12-24T00:03:48.475Z,9.44
2022-12-24T00:06:21.092Z,9.43
2022-12-24T00:08:48.080Z,9.45
2022-12-24T00:11:18.168Z,9.45
2022-12-24T00:13:46.043Z,9.46
2022-12-24T00:16:16.576Z,9.45
2022-12-24T00:18:46.149Z,9.44
2022-12-24T00:21:15.080Z,9.43
2022-12-24T00:23:41.739Z,9.43
2022-12-24T00:26:11.349Z,9.44
2022-12-24T00:28:40.117Z,9.46
2022-12-24T00:31:18.476Z,9.45
2022-12-24T00:33:49.405Z,9.48
2022-12-24T00:36:20.647Z,9.45
2022-12-24T00:38:50.190Z,9.42
2022-12-24T00:41:26.517Z,9.43
2022-12-24T00:43:57.660Z,9.45
2022-12-24T00:46:26.333Z,9.42
2022-12-24T00:48:54.362Z,9.39
2022-12-24T00:51:22.743Z,9.39
2022-12-24T00:53:50.088Z,9.38
2022-12-24T00:56:17.858Z,9.38
2022-12-24T00:58:44.829Z,9.36
2022-12-24T01:01:12.324Z,9.34
2022-12-24T01:03:39.058Z,9.33
2022-12-24T01:06:20.196Z,9.30
2022-12-24T01:08:49.972Z,9.28
2022-12-24T01:11:16.776Z,9.26
2022-12-24T01:13:44.446Z,9.27
2022-12-24T01:16:21.508Z,9.26
2022-12-24T01:18:52.651Z,9.21
2022-12-24T01:21:22.395Z,9.16
2022-12-24T01:23:52.844Z,9.08
2022-12-24T01:26:19.925Z,9.01
2022-12-24T01:28:47.865Z,8.98
2022-12-24T01:31:17.452Z,8.98
2022-12-24T01:33:45.709Z,8.93
2022-12-24T01:36:13.182Z,8.91
2022-12-24T01:38:45.329Z,8.84
2022-12-24T01:41:37.716Z,8.79
2022-12-24T01:44:36.503Z,8.73
2022-12-24T01:47:12.055Z,8.64
2022-12-24T01:49:45.294Z,8.58
2022-12-24T01:52:18.234Z,8.49
2022-12-24T01:54:50.619Z,8.42
2022-12-24T01:57:28.428Z,8.36
2022-12-24T01:59:59.132Z,8.30
2022-12-24T02:02:28.337Z,8.29
2022-12-24T02:05:07.385Z,8.26
2022-12-24T02:07:35.935Z,8.20
2022-12-24T02:10:06.154Z,8.17
2022-12-24T02:12:35.855Z,8.12
2022-12-24T02:15:03.767Z,8.05
2022-12-24T02:17:54.623Z,8.01
2022-12-24T02:20:41.724Z,7.99
2022-12-24T02:23:27.553Z,8.01
2022-12-24T02:26:35.123Z,7.96
2022-12-24T02:29:20.299Z,7.92
2022-12-24T02:32:02.591Z,7.87
2022-12-24T02:34:32.711Z,7.87
2022-12-24T02:37:38.701Z,7.85
2022-12-24T02:40:22.082Z,7.84
2022-12-24T02:42:55.627Z,7.80
2022-12-24T02:45:28.243Z,7.77
2022-12-24T02:47:56.174Z,7.74
2022-12-24T02:50:23.398Z,7.71
2022-12-24T02:52:51.444Z,7.70
2022-12-24T02:55:25.933Z,7.69
2022-12-24T02:58:42.475Z,7.66
2022-12-24T03:01:28.700Z,7.67
2022-12-24T03:04:10.113Z,7.64
2022-12-24T03:06:53.032Z,7.62
2022-12-24T03:09:30.523Z,7.59
2022-12-24T03:12:20.503Z,7.56
2022-12-24T03:14:48.885Z,7.54
2022-12-24T03:17:18.231Z,7.55
2022-12-24T03:19:46.922Z,7.54
2022-12-24T03:22:14.150Z,7.53
2022-12-24T03:24:40.965Z,7.52
2022-12-24T03:27:10.042Z,7.51
2022-12-24T03:29:42.956Z,7.51
2022-12-24T03:32:09.903Z,7.52
2022-12-24T03:34:42.762Z,7.56
2022-12-24T03:37:09.774Z,7.60
2022-12-24T03:39:36.636Z,7.64
2022-12-24T03:42:03.467Z,7.65
2022-12-24T03:44:30.926Z,7.68
2022-12-24T03:47:01.048Z,7.70
2022-12-24T03:49:31.021Z,7.70
2022-12-24T03:51:59.447Z,7.69
2022-12-24T03:54:26.989Z,7.71
2022-12-24T03:56:53.508Z,7.78
2022-12-24T03:59:20.324Z,7.84
2022-12-24T04:01:48.588Z,7.91
2022-12-24T04:04:16.259Z,7.98
2022-12-24T04:06:44.487Z,8.05
2022-12-24T04:09:11.423Z,8.10
2022-12-24T04:11:38.295Z,8.14
2022-12-24T04:14:05.428Z,8.18
2022-12-24T04:16:34.399Z,8.23
2022-12-24T04:19:01.374Z,8.26
2022-12-24T04:21:28.485Z,8.27
2022-12-24T04:23:59.390Z,8.29
2022-12-24T04:26:29.510Z,8.33
2022-12-24T04:28:56.184Z,8.35
2022-12-24T04:31:22.841Z,8.35
2022-12-24T04:33:54.176Z,8.39
2022-12-24T04:36:21.776Z,8.40
2022-12-24T04:38:49.277Z,8.42
2022-12-24T04:41:23.932Z,8.46
2022-12-24T04:43:56.011Z,8.49
2022-12-24T04:46:26.140Z,8.50
2022-12-24T04:48:55.558Z,8.53
2022-12-24T04:51:23.407Z,8.54
2022-12-24T04:53:51.831Z,8.55
2022-12-24T04:56:22.611Z,8.56
2022-12-24T04:58:54.306Z,8.57
2022-12-24T05:01:27.916Z,8.54
2022-12-24T05:03:55.381Z,8.55
2022-12-24T05:06:24.486Z,8.58
2022-12-24T05:08:56.019Z,8.58
2022-12-24T05:11:24.846Z,8.59
2022-12-24T05:13:51.902Z,8.61
2022-12-24T05:16:21.177Z,8.64
2022-12-24T05:18:49.191Z,8.67
2022-12-24T05:21:22.116Z,8.69
2022-12-24T05:24:07.798Z,8.68
2022-12-24T05:26:39.779Z,8.72
2022-12-24T05:29:08.618Z,8.71
2022-12-24T05:31:37.260Z,8.71
2022-12-24T05:34:04.158Z,8.70
2022-12-24T05:36:31.329Z,8.70
2022-12-24T05:38:58.669Z,8.72
2022-12-24T05:41:26.805Z,8.73
2022-12-24T05:43:53.732Z,8.71
2022-12-24T05:46:22.609Z,8.73
2022-12-24T05:48:50.423Z,8.76
2022-12-24T05:51:19.669Z,8.75
2022-12-24T05:53:50.170Z,8.75
2022-12-24T05:56:22.871Z,8.76
2022-12-24T05:58:56.069Z,8.80
2022-12-24T06:01:23.921Z,8.82
2022-12-24T06:03:52.028Z,8.86
2022-12-24T06:06:22.554Z,8.87
2022-12-24T06:08:50.762Z,8.89
2022-12-24T06:11:18.744Z,8.88
2022-12-24T06:13:46.867Z,8.89
2022-12-24T06:16:16.902Z,8.86
2022-12-24T06:18:51.856Z,8.84
2022-12-24T06:21:21.960Z,8.80
2022-12-24T06:23:51.668Z,8.76
2022-12-24T06:26:20.924Z,8.77
2022-12-24T06:28:52.904Z,8.80
2022-12-24T06:31:22.113Z,8.82
2022-12-24T06:33:49.357Z,8.84
2022-12-24T06:36:20.362Z,8.86
2022-12-24T06:38:49.109Z,8.87
2022-12-24T06:41:17.196Z,8.86
2022-12-24T06:43:47.255Z,8.90
2022-12-24T06:46:20.367Z,8.92
2022-12-24T06:48:48.185Z,8.92
2022-12-24T06:51:16.457Z,8.94
2022-12-24T06:53:43.432Z,8.94
2022-12-24T06:56:12.312Z,8.98
2022-12-24T06:58:44.872Z,8.97
2022-12-24T07:01:16.988Z,8.96
2022-12-24T07:03:46.626Z,8.99
2022-12-24T07:06:29.230Z,9.01
2022-12-24T07:08:55.961Z,9.00
2022-12-24T07:11:26.745Z,8.98
2022-12-24T07:13:56.175Z,8.97
2022-12-24T07:16:23.282Z,8.96
2022-12-24T07:18:55.915Z,8.92
2022-12-24T07:21:23.505Z,8.91
2022-12-24T07:23:50.798Z,8.93
2022-12-24T07:26:18.189Z,8.88
2022-12-24T07:28:44.899Z,8.85
2022-12-24T07:31:14.394Z,8.77
2022-12-24T07:33:45.308Z,8.76
2022-12-24T07:36:19.249Z,8.76
2022-12-24T07:38:46.307Z,8.78
2022-12-24T07:41:13.538Z,8.79
2022-12-24T07:43:40.299Z,8.83
2022-12-24T07:46:07.265Z,8.89
2022-12-24T07:48:34.611Z,8.91
2022-12-24T07:51:01.871Z,8.92
2022-12-24T07:53:29.576Z,8.94
2022-12-24T07:55:58.328Z,8.95
2022-12-24T07:58:25.823Z,8.94
2022-12-24T08:01:00.311Z,8.96
2022-12-24T08:03:27.883Z,8.95
2022-12-24T08:05:55.117Z,8.99
2022-12-24T08:08:23.483Z,9.01
2022-12-24T08:10:50.196Z,9.01
2022-12-24T08:13:18.312Z,9.00
2022-12-24T08:15:45.096Z,9.02
2022-12-24T08:18:13.179Z,9.01
2022-12-24T08:20:43.168Z,9.05
2022-12-24T08:23:10.304Z,9.04
2022-12-24T08:25:38.456Z,9.06
2022-12-24T08:28:06.244Z,9.06
2022-12-24T08:30:36.138Z,9.10
2022-12-24T08:33:04.161Z,9.12
2022-12-24T08:35:31.083Z,9.13
2022-12-24T08:37:58.873Z,9.13
2022-12-24T08:40:25.874Z,9.14
2022-12-24T08:42:54.980Z,9.20
2022-12-24T08:45:21.944Z,9.23
2022-12-24T08:47:51.956Z,9.28
2022-12-24T08:50:22.981Z,9.28
2022-12-24T08:52:53.004Z,9.30
2022-12-24T08:55:20.761Z,9.32
2022-12-24T08:57:48.485Z,9.35
2022-12-24T09:00:16.389Z,9.36
2022-12-24T09:02:43.451Z,9.39
2022-12-24T09:05:12.962Z,9.41
2022-12-24T09:07:40.908Z,9.46
2022-12-24T09:10:08.522Z,9.49
2022-12-24T09:12:35.063Z,9.54
2022-12-24T09:15:04.037Z,9.51
2022-12-24T09:17:31.116Z,9.52
2022-12-24T09:19:57.627Z,9.53
2022-12-24T09:22:24.322Z,9.52
2022-12-24T09:24:53.337Z,9.53
2022-12-24T09:27:25.140Z,9.54
2022-12-24T09:29:52.455Z,9.58
2022-12-24T09:32:19.420Z,9.60
2022-12-24T09:34:46.012Z,9.65
2022-12-24T09:37:13.309Z,9.71
2022-12-24T09:39:40.031Z,9.73
2022-12-24T09:42:25.360Z,9.75
2022-12-24T09:44:59.116Z,9.75
2022-12-24T09:47:39.805Z,9.75
2022-12-24T09:50:38.081Z,9.79
2022-12-24T09:53:13.203Z,9.81
2022-12-24T09:55:52.608Z,9.77
2022-12-24T09:58:26.578Z,9.76
2022-12-24T10:00:54.923Z,9.72
2022-12-24T10:03:21.646Z,9.83
2022-12-24T10:06:09.322Z,10.30
2022-12-24T10:08:43.256Z,10.74
2022-12-24T10:11:54.245Z,10.54
2022-12-24T10:14:31.725Z,10.15
2022-12-24T10:17:01.383Z,9.95
2022-12-24T10:20:02.798Z,9.87
2022-12-24T10:22:42.674Z,9.90
2022-12-24T10:25:20.937Z,10.20
2022-12-24T10:27:47.915Z,10.13
2022-12-24T10:30:20.915Z,10.06
2022-12-24T10:32:49.871Z,10.20
2022-12-24T10:35:16.901Z,10.22
2022-12-24T10:37:46.839Z,10.26
2022-12-24T10:40:30.626Z,10.91
2022-12-24T10:42:57.810Z,10.89
2022-12-24T10:45:31.183Z,10.70
2022-12-24T10:48:04.060Z,10.74
2022-12-24T10:50:51.836Z,10.84
2022-12-24T10:53:50.910Z,10.72
2022-12-24T10:56:19.634Z,10.70
2022-12-24T10:58:53.355Z,10.65
2022-12-24T11:01:40.935Z,10.60
2022-12-24T11:04:21.777Z,10.50
2022-12-24T11:06:56.042Z,10.40
2022-12-24T11:09:29.685Z,10.32
2022-12-24T11:12:07.069Z,10.25
2022-12-24T11:14:38.897Z,10.21
2022-12-24T11:17:07.197Z,10.16
2022-12-24T11:19:37.317Z,10.14
2022-12-24T11:22:08.172Z,10.11
2022-12-24T11:24:37.280Z,10.08
2022-12-24T11:27:29.963Z,10.09
2022-12-24T11:30:15.422Z,10.21
2022-12-24T11:32:48.783Z,10.25
2022-12-24T11:35:23.664Z,10.21
2022-12-24T11:38:11.517Z,10.21
2022-12-24T11:40:43.120Z,10.18
2022-12-24T11:43:19.590Z,10.16
2022-12-24T11:46:14.915Z,10.15
2022-12-24T11:48:47.362Z,10.15
2022-12-24T11:51:27.840Z,10.15
2022-12-24T11:54:13.424Z,10.11
2022-12-24T11:56:52.698Z,10.11
2022-12-24T11:59:33.029Z,10.19
2022-12-24T12:02:14.967Z,10.23
2022-12-24T12:04:44.367Z,10.25
2022-12-24T12:07:16.169Z,10.24
2022-12-24T12:09:51.152Z,10.24
2022-12-24T12:12:26.021Z,10.25
2022-12-24T12:15:01.798Z,10.30
2022-12-24T12:17:46.819Z,10.36
2022-12-24T12:20:28.788Z,10.35
2022-12-24T12:22:58.771Z,10.30
2022-12-24T12:25:43.679Z,10.21
2022-12-24T12:28:58.112Z,10.12
2022-12-24T12:31:32.059Z,10.09
2022-12-24T12:34:13.328Z,10.08
2022-12-24T12:36:45.880Z,10.06
2022-12-24T12:39:12.709Z,10.02
2022-12-24T12:41:46.907Z,10.00
2022-12-24T12:44:41.617Z,9.98
2022-12-24T12:47:08.507Z,9.97
2022-12-24T12:50:14.336Z,10.01
2022-12-24T12:52:49.867Z,10.09
2022-12-24T12:55:28.542Z,10.12
2022-12-24T12:58:02.100Z,10.12
2022-12-24T13:00:38.317Z,10.14
2022-12-24T13:03:32.424Z,10.18
2022-12-24T13:06:13.571Z,10.20
2022-12-24T13:09:08.049Z,10.21
2022-12-24T13:11:41.611Z,10.23
2022-12-24T13:14:25.843Z,10.26
2022-12-24T13:17:32.319Z,10.27
2022-12-24T13:20:22.035Z,10.29
2022-12-24T13:23:15.220Z,10.32
2022-12-24T13:25:45.564Z,10.42
2022-12-24T13:28:22.559Z,10.51
2022-12-24T13:31:13.619Z,10.56
2022-12-24T13:33:40.390Z,10.53
2022-12-24T13:36:08.780Z,10.48
2022-12-24T13:38:54.925Z,10.39
2022-12-24T13:41:40.962Z,10.33
2022-12-24T13:44:15.516Z,10.30
2022-12-24T13:46:52.395Z,10.26
2022-12-24T13:49:45.191Z,10.26
2022-12-24T13:52:12.014Z,10.31
2022-12-24T13:54:43.284Z,10.29
2022-12-24T13:57:40.277Z,10.25
2022-12-24T14:00:15.881Z,10.18
2022-12-24T14:02:51.999Z,10.13
2022-12-24T14:05:51.105Z,10.12
2022-12-24T14:08:29.597Z,10.15
2022-12-24T14:11:02.855Z,10.15
2022-12-24T14:13:38.677Z,10.12
2022-12-24T14:16:13.949Z,10.09
2022-12-24T14:18:57.828Z,10.11
2022-12-24T14:21:41.316Z,10.12
2022-12-24T14:24:19.890Z,10.16
2022-12-24T14:26:56.148Z,10.12
2022-12-24T14:29:47.052Z,10.11
2022-12-24T14:32:17.255Z,10.08
2022-12-24T14:34:44.949Z,10.01
2022-12-24T14:37:14.789Z,10.00
2022-12-24T14:39:46.354Z,10.02
2022-12-24T14:42:45.765Z,9.99
2022-12-24T14:45:35.040Z,9.97
2022-12-24T14:48:17.532Z,9.92
2022-12-24T14:51:10.838Z,9.88
2022-12-24T14:53:57.618Z,9.86
2022-12-24T14:56:26.667Z,9.85
2022-12-24T14:58:53.293Z,9.80
2022-12-24T15:01:28.132Z,9.74
2022-12-24T15:04:02.456Z,9.69
2022-12-24T15:06:35.093Z,9.64
2022-12-24T15:09:01.857Z,9.61
2022-12-24T15:11:31.798Z,9.60
2022-12-24T15:14:00.919Z,9.53
2022-12-24T15:16:35.346Z,9.46
2022-12-24T15:19:08.139Z,9.38
2022-12-24T15:21:41.653Z,9.31
2022-12-24T15:24:27.085Z,9.22
2022-12-24T15:26:56.268Z,9.14
2022-12-24T15:29:26.331Z,9.05
2022-12-24T15:31:59.745Z,9.00
2022-12-24T15:34:39.361Z,8.96
2022-12-24T15:37:19.757Z,8.89
2022-12-24T15:39:57.951Z,8.82
2022-12-24T15:42:26.609Z,8.76
2022-12-24T15:45:01.031Z,8.71
2022-12-24T15:47:38.185Z,8.64
2022-12-24T15:50:14.309Z,8.58
2022-12-24T15:52:42.326Z,8.51
2022-12-24T15:55:40.179Z,8.49
2022-12-24T15:58:29.006Z,8.45
2022-12-24T16:01:14.425Z,8.42
2022-12-24T16:03:51.267Z,8.40
2022-12-24T16:06:20.101Z,8.40
2022-12-24T16:08:48.221Z,8.36
2022-12-24T16:11:28.868Z,8.35
2022-12-24T16:14:04.364Z,8.31
2022-12-24T16:16:42.948Z,8.30
2022-12-24T16:19:26.516Z,8.22
2022-12-24T16:21:56.484Z,8.13
2022-12-24T16:24:28.476Z,8.07
2022-12-24T16:26:55.860Z,7.99
2022-12-24T16:29:23.266Z,7.90
2022-12-24T16:31:55.250Z,7.81
2022-12-24T16:34:33.385Z,7.73
2022-12-24T16:37:00.578Z,7.68
2022-12-24T16:39:33.990Z,7.64
2022-12-24T16:42:21.366Z,7.56
2022-12-24T16:44:48.635Z,7.48
2022-12-24T16:47:28.525Z,7.40
2022-12-24T16:49:58.337Z,7.29
2022-12-24T16:52:28.979Z,7.19
2022-12-24T16:54:56.628Z,7.06
2022-12-24T16:57:24.517Z,7.02
2022-12-24T16:59:54.863Z,6.96
2022-12-24T17:02:23.795Z,6.86
2022-12-24T17:04:51.127Z,6.74
2022-12-24T17:07:19.550Z,6.69
2022-12-24T17:09:48.163Z,6.59
2022-12-24T17:12:14.789Z,6.56
2022-12-24T17:14:44.715Z,6.55
2022-12-24T17:17:27.462Z,6.53
2022-12-24T17:20:02.783Z,6.49
2022-12-24T17:22:30.210Z,6.45
2022-12-24T17:24:57.304Z,6.37
2022-12-24T17:27:24.424Z,6.38
2022-12-24T17:29:51.271Z,6.37
2022-12-24T17:32:18.161Z,6.36
2022-12-24T17:34:45.315Z,6.33
2022-12-24T17:37:13.166Z,6.32
2022-12-24T17:39:42.461Z,6.29
2022-12-24T17:42:08.977Z,6.25
2022-12-24T17:44:35.852Z,6.23
2022-12-24T17:47:05.697Z,6.17
2022-12-24T17:49:33.308Z,6.16
2022-12-24T17:52:00.070Z,6.16
2022-12-24T17:54:27.417Z,6.14
2022-12-24T17:56:54.814Z,6.11
2022-12-24T17:59:21.383Z,6.06
2022-12-24T18:01:48.723Z,6.05
2022-12-24T18:04:15.346Z,6.02
2022-12-24T18:06:49.602Z,5.97
2022-12-24T18:09:16.772Z,5.94
2022-12-24T18:11:43.436Z,5.93
2022-12-24T18:14:12.543Z,5.92
2022-12-24T18:16:40.819Z,5.91
2022-12-24T18:19:08.467Z,5.95
2022-12-24T18:21:36.432Z,5.96
2022-12-24T18:24:03.462Z,5.98
2022-12-24T18:26:31.705Z,5.96
2022-12-24T18:29:00.474Z,5.87
2022-12-24T18:31:29.883Z,5.86
2022-12-24T18:33:57.224Z,5.89
2022-12-24T18:36:26.401Z,5.93
2022-12-24T18:38:54.224Z,5.96
2022-12-24T18:41:26.884Z,6.01
2022-12-24T18:43:54.439Z,6.02
2022-12-24T18:46:24.017Z,6.05
2022-12-24T18:48:51.642Z,6.06
2022-12-24T18:51:22.337Z,6.08
2022-12-24T18:53:49.793Z,6.07
2022-12-24T18:56:19.833Z,6.06
2022-12-24T18:58:47.751Z,6.03
2022-12-24T19:01:22.947Z,6.00
2022-12-24T19:03:53.725Z,5.95
2022-12-24T19:06:23.434Z,5.92
2022-12-24T19:09:00.225Z,5.93
2022-12-24T19:11:30.584Z,5.92
2022-12-24T19:13:58.608Z,5.92
2022-12-24T19:16:27.196Z,5.90
2022-12-24T19:18:53.918Z,5.89
2022-12-24T19:21:20.860Z,5.80
2022-12-24T19:23:47.960Z,5.74
2022-12-24T19:26:19.576Z,5.72
2022-12-24T19:28:49.653Z,5.70
2022-12-24T19:31:19.687Z,5.69
2022-12-24T19:33:48.803Z,5.67
2022-12-24T19:36:19.652Z,5.65
2022-12-24T19:38:47.439Z,5.66
2022-12-24T19:41:19.376Z,5.68
2022-12-24T19:43:49.472Z,5.71
2022-12-24T19:46:22.547Z,5.73
2022-12-24T19:48:58.320Z,5.73
2022-12-24T19:51:27.565Z,5.72
2022-12-24T19:53:58.486Z,5.70
2022-12-24T19:56:29.937Z,5.68
2022-12-24T19:58:57.654Z,5.67
2022-12-24T20:01:26.457Z,5.65
2022-12-24T20:03:53.834Z,5.68
2022-12-24T20:06:23.359Z,5.66
2022-12-24T20:08:50.379Z,5.64
2022-12-24T20:11:20.352Z,5.62
2022-12-24T20:13:49.173Z,5.57
2022-12-24T20:16:22.991Z,5.46
2022-12-24T20:19:05.757Z,5.43
2022-12-24T20:21:32.793Z,5.43
2022-12-24T20:24:00.927Z,5.42
2022-12-24T20:26:30.458Z,5.45
2022-12-24T20:28:57.428Z,5.50
2022-12-24T20:31:27.379Z,5.56
2022-12-24T20:33:56.888Z,5.65
2022-12-24T20:36:25.202Z,5.72
2022-12-24T20:38:52.179Z,5.76
2022-12-24T20:41:22.059Z,5.84
2022-12-24T20:43:49.155Z,5.93
2022-12-24T20:46:18.448Z,6.04
2022-12-24T20:48:47.592Z,6.09
2022-12-24T20:51:24.335Z,6.12
2022-12-24T20:53:58.689Z,6.15
2022-12-24T20:56:27.738Z,6.20
2022-12-24T20:58:54.948Z,6.39
2022-12-24T21:01:24.586Z,6.55
2022-12-24T21:03:55.231Z,6.67
2022-12-24T21:06:27.470Z,6.79
2022-12-24T21:08:54.770Z,6.89
2022-12-24T21:11:41.306Z,6.98
2022-12-24T21:14:10.285Z,7.06
2022-12-24T21:16:38.024Z,7.07
2022-12-24T21:19:11.075Z,7.08
2022-12-24T21:21:38.438Z,7.08
2022-12-24T21:24:07.495Z,7.07
2022-12-24T21:26:36.469Z,7.08
2022-12-24T21:29:05.590Z,7.07
2022-12-24T21:31:34.599Z,7.07
2022-12-24T21:34:01.232Z,7.08
2022-12-24T21:36:28.155Z,7.06
2022-12-24T21:38:55.064Z,7.00
2022-12-24T21:41:26.331Z,6.97
2022-12-24T21:43:53.811Z,6.93
2022-12-24T21:46:24.867Z,6.86
2022-12-24T21:49:11.299Z,6.80
2022-12-24T21:51:40.052Z,6.76
2022-12-24T21:54:28.619Z,6.70
2022-12-24T21:57:18.527Z,6.68
2022-12-24T21:59:49.092Z,6.63
2022-12-24T22:02:19.341Z,6.64
2022-12-24T22:04:46.896Z,6.66
2022-12-24T22:07:48.360Z,6.66
2022-12-24T22:10:37.224Z,6.72
2022-12-24T22:13:06.391Z,6.73
2022-12-24T22:15:42.037Z,6.75
2022-12-24T22:18:08.845Z,6.73
2022-12-24T22:20:37.387Z,6.70
2022-12-24T22:23:08.922Z,6.62
2022-12-24T22:25:37.363Z,6.56
2022-12-24T22:28:05.203Z,6.62
2022-12-24T22:30:32.765Z,6.71
2022-12-24T22:33:00.277Z,6.68
2022-12-24T22:35:27.089Z,6.64
2022-12-24T22:37:59.651Z,6.55
2022-12-24T22:40:30.171Z,6.53
2022-12-24T22:42:59.064Z,6.48
2022-12-24T22:45:28.120Z,6.40
2022-12-24T22:47:55.555Z,6.32
2022-12-24T22:50:22.500Z,6.30
2022-12-24T22:52:50.044Z,6.29
2022-12-24T22:55:18.043Z,6.25
2022-12-24T22:57:44.928Z,6.28
2022-12-24T23:00:17.332Z,6.32
2022-12-24T23:02:44.653Z,6.39
2022-12-24T23:05:15.729Z,6.42
2022-12-24T23:07:42.469Z,6.48
2022-12-24T23:10:10.046Z,6.52
2022-12-24T23:13:00.099Z,6.59
2022-12-24T23:15:28.132Z,6.63
2022-12-24T23:17:57.494Z,6.63
2022-12-24T23:20:29.250Z,6.62
2022-12-24T23:22:56.651Z,6.55
2022-12-24T23:25:24.121Z,6.63
2022-12-24T23:27:52.705Z,6.62
2022-12-24T23:30:22.062Z,6.63
2022-12-24T23:32:48.946Z,6.65
2022-12-24T23:35:16.952Z,6.67
2022-12-24T23:37:49.320Z,6.70
2022-12-24T23:40:19.927Z,6.70
2022-12-24T23:42:47.250Z,6.70
2022-12-24T23:45:14.363Z,6.72
2022-12-24T23:47:42.483Z,6.80
2022-12-24T23:50:12.235Z,6.88
2022-12-24T23:52:38.811Z,6.95
2022-12-24T23:55:06.406Z,7.01
2022-12-24T23:57:33.259Z,7.04
